createdAt,value
2016-09-28T00:00:20.664Z,12.71
2016-09-28T00:01:20.659Z,12.7
2016-09-28T00:02:20.674Z,12.62
2016-09-28T00:03:20.671Z,12.7
2016-09-28T00:04:20.665Z,12.64
2016-09-28T00:05:20.644Z,12.62
2016-09-28T00:06:20.649Z,12.64
2016-09-28T00:07:20.684Z,12.66
2016-09-28T00:08:20.664Z,12.66
2016-09-28T00:09:20.667Z,12.57
2016-09-28T00:10:20.674Z,12.64
2016-09-28T00:11:20.643Z,12.69
2016-09-28T00:12:20.648Z,12.62
2016-09-28T00:13:20.693Z,12.63
2016-09-28T00:14:20.657Z,12.62
2016-09-28T00:15:20.665Z,12.64
2016-09-28T00:16:20.687Z,12.78
2016-09-28T00:17:20.721Z,12.63
2016-09-28T00:18:20.700Z,12.67
2016-09-28T00:19:20.689Z,12.75
2016-09-28T00:20:20.698Z,12.7
2016-09-28T00:21:20.659Z,12.6
2016-09-28T00:22:20.669Z,12.79
2016-09-28T00:23:20.686Z,12.79
2016-09-28T00:24:20.691Z,12.7
2016-09-28T00:25:20.706Z,12.82
2016-09-28T00:26:20.683Z,12.96
2016-09-28T00:27:20.713Z,12.92
2016-09-28T00:28:20.720Z,12.95
2016-09-28T00:29:21.333Z,13.12
2016-09-28T00:30:20.673Z,13.04
2016-09-28T00:31:20.688Z,13.11
2016-09-28T00:32:20.715Z,13.11
2016-09-28T00:33:20.720Z,13.25
2016-09-28T00:34:20.680Z,13.4
2016-09-28T00:35:20.670Z,13.36
2016-09-28T00:36:20.675Z,13.25
2016-09-28T00:37:20.700Z,13.37
2016-09-28T00:38:20.732Z,13.46
2016-09-28T00:39:20.714Z,13.4
2016-09-28T00:40:20.698Z,13.43
2016-09-28T00:41:20.702Z,13.51
2016-09-28T00:42:20.703Z,13.55
2016-09-28T00:43:20.692Z,13.55
2016-09-28T00:44:20.724Z,13.67
2016-09-28T00:45:20.693Z,13.52
2016-09-28T00:46:20.699Z,13.59
2016-09-28T00:47:20.680Z,13.54
2016-09-28T00:48:20.719Z,13.49
2016-09-28T00:49:20.676Z,13.58
2016-09-28T00:50:20.692Z,13.46
2016-09-28T00:51:20.674Z,13.55
2016-09-28T00:52:20.684Z,13.51
2016-09-28T00:53:20.687Z,13.58
2016-09-28T00:54:20.693Z,13.59
2016-09-28T00:55:20.683Z,13.51
2016-09-28T00:56:20.675Z,13.55
2016-09-28T00:57:20.683Z,13.69
2016-09-28T00:58:20.705Z,13.65
2016-09-28T00:59:20.685Z,13.51
2016-09-28T01:00:20.699Z,13.7
2016-09-28T01:01:20.666Z,13.67
2016-09-28T01:02:20.701Z,13.61
2016-09-28T01:03:20.711Z,13.71
2016-09-28T01:04:20.695Z,13.63
2016-09-28T01:05:20.744Z,13.76
2016-09-28T01:06:20.718Z,13.63
2016-09-28T01:07:20.713Z,13.71
2016-09-28T01:08:20.713Z,13.8
2016-09-28T01:09:20.719Z,13.67
2016-09-28T01:10:20.732Z,13.63
2016-09-28T01:11:20.711Z,13.77
2016-09-28T01:12:21.505Z,13.7
2016-09-28T01:13:20.726Z,13.79
2016-09-28T01:14:20.726Z,13.81
2016-09-28T01:15:20.724Z,13.74
2016-09-28T01:16:20.716Z,13.74
2016-09-28T01:17:20.720Z,13.69
2016-09-28T01:18:20.708Z,13.71
2016-09-28T01:19:20.717Z,13.83
2016-09-28T01:20:20.706Z,13.87
2016-09-28T01:21:20.749Z,13.81
2016-09-28T01:22:20.737Z,13.88
2016-09-28T01:23:20.726Z,13.94
2016-09-28T01:24:20.741Z,13.99
2016-09-28T01:25:20.726Z,14.06
2016-09-28T01:26:20.725Z,14.06
2016-09-28T01:27:20.759Z,14.04
2016-09-28T01:28:20.704Z,14.06
2016-09-28T01:29:20.740Z,14.1
2016-09-28T01:30:20.728Z,14.06
2016-09-28T01:31:20.727Z,14.09
2016-09-28T01:32:20.704Z,14.21
2016-09-28T01:33:20.741Z,14.25
2016-09-28T01:34:20.751Z,14.21
2016-09-28T01:35:20.709Z,14.24
2016-09-28T01:36:20.784Z,14.35
2016-09-28T01:37:20.783Z,14.27
2016-09-28T01:38:20.720Z,14.27
2016-09-28T01:39:20.735Z,14.38
2016-09-28T01:40:20.731Z,14.38
2016-09-28T01:41:20.733Z,14.39
2016-09-28T01:42:20.738Z,14.5
2016-09-28T01:43:20.724Z,14.43
2016-09-28T01:44:20.729Z,14.57
2016-09-28T01:45:20.750Z,14.52
2016-09-28T01:46:20.712Z,14.64
2016-09-28T01:47:20.745Z,14.65
2016-09-28T01:48:20.725Z,14.6
2016-09-28T01:49:20.730Z,14.61
2016-09-28T01:50:20.799Z,14.72
2016-09-28T01:51:20.731Z,14.68
2016-09-28T01:52:20.761Z,14.68
2016-09-28T01:53:20.744Z,14.75
2016-09-28T01:54:20.749Z,14.81
2016-09-28T01:55:20.762Z,14.74
2016-09-28T01:56:20.790Z,14.88
2016-09-28T01:57:20.747Z,14.86
2016-09-28T01:58:20.715Z,14.81
2016-09-28T01:59:20.771Z,14.88
2016-09-28T02:00:20.755Z,14.83
2016-09-28T02:01:20.754Z,14.9
2016-09-28T02:02:20.763Z,14.88
2016-09-28T02:03:20.724Z,14.83
2016-09-28T02:04:20.733Z,14.86
2016-09-28T02:05:20.769Z,14.84
2016-09-28T02:06:20.762Z,14.86
2016-09-28T02:07:20.808Z,14.99
2016-09-28T02:08:20.760Z,14.87
2016-09-28T02:09:20.764Z,14.91
2016-09-28T02:10:20.774Z,14.94
2016-09-28T02:11:20.831Z,14.86
2016-09-28T02:12:20.773Z,14.84
2016-09-28T02:13:20.805Z,14.95
2016-09-28T02:14:20.785Z,15.01
2016-09-28T02:15:20.772Z,14.86
2016-09-28T02:16:20.797Z,14.94
2016-09-28T02:17:20.842Z,14.98
2016-09-28T02:18:20.792Z,14.9
2016-09-28T02:19:20.798Z,14.86
2016-09-28T02:20:20.787Z,14.93
2016-09-28T02:21:20.776Z,14.94
2016-09-28T02:22:20.803Z,14.8
2016-09-28T02:23:20.795Z,14.91
2016-09-28T02:24:20.826Z,14.9
2016-09-28T02:25:20.826Z,14.88
2016-09-28T02:26:20.787Z,14.91
2016-09-28T02:27:20.817Z,14.93
2016-09-28T02:28:20.786Z,14.91
2016-09-28T02:29:20.800Z,15.01
2016-09-28T02:30:20.778Z,14.91
2016-09-28T02:31:20.753Z,14.94
2016-09-28T02:32:20.808Z,14.93
2016-09-28T02:33:20.809Z,14.83
2016-09-28T02:34:20.762Z,14.86
2016-09-28T02:35:20.781Z,14.9
2016-09-28T02:36:20.788Z,14.94
2016-09-28T02:37:20.794Z,14.81
2016-09-28T02:38:20.787Z,14.87
2016-09-28T02:39:20.781Z,14.81
2016-09-28T02:40:20.773Z,14.86
2016-09-28T02:41:20.781Z,14.75
2016-09-28T02:42:20.808Z,14.68
2016-09-28T02:43:20.829Z,14.67
2016-09-28T02:44:20.823Z,14.68
2016-09-28T02:45:20.790Z,14.6
2016-09-28T02:46:20.814Z,14.64
2016-09-28T02:47:20.820Z,14.52
2016-09-28T02:48:20.817Z,14.52
2016-09-28T02:49:20.815Z,14.46
2016-09-28T02:50:20.797Z,14.6
2016-09-28T02:51:20.823Z,14.57
2016-09-28T02:52:20.829Z,14.53
2016-09-28T02:53:20.801Z,14.5
2016-09-28T02:54:20.818Z,14.53
2016-09-28T02:55:20.807Z,14.44
2016-09-28T02:56:20.786Z,14.54
2016-09-28T02:57:20.849Z,14.53
2016-09-28T02:58:20.793Z,14.54
2016-09-28T02:59:20.868Z,14.62
2016-09-28T03:00:20.805Z,14.5
2016-09-28T03:01:20.805Z,14.65
2016-09-28T03:02:20.812Z,14.64
2016-09-28T03:03:20.828Z,14.61
2016-09-28T03:04:20.800Z,14.67
2016-09-28T03:05:20.816Z,14.64
2016-09-28T03:06:20.832Z,14.56
2016-09-28T03:07:20.814Z,14.65
2016-09-28T03:08:20.827Z,14.74
2016-09-28T03:09:20.803Z,14.72
2016-09-28T03:10:20.795Z,14.68
2016-09-28T03:11:20.814Z,14.68
2016-09-28T03:12:20.823Z,14.64
2016-09-28T03:13:20.836Z,14.62
2016-09-28T03:14:20.825Z,14.62
2016-09-28T03:15:20.836Z,14.57
2016-09-28T03:16:20.827Z,14.57
2016-09-28T03:17:20.875Z,14.54
2016-09-28T03:18:20.875Z,14.57
2016-09-28T03:19:20.812Z,14.61
2016-09-28T03:20:20.817Z,14.56
2016-09-28T03:21:20.833Z,14.62
2016-09-28T03:22:20.835Z,14.54
2016-09-28T03:23:20.879Z,14.46
2016-09-28T03:24:20.842Z,14.56
2016-09-28T03:25:20.872Z,14.54
2016-09-28T03:26:20.817Z,14.5
2016-09-28T03:27:20.860Z,14.5
2016-09-28T03:28:20.836Z,14.49
2016-09-28T03:29:20.829Z,14.44
2016-09-28T03:30:20.853Z,14.5
2016-09-28T03:31:20.846Z,14.43
2016-09-28T03:32:20.879Z,14.52
2016-09-28T03:33:20.887Z,14.5
2016-09-28T03:34:20.911Z,14.42
2016-09-28T03:35:20.863Z,14.49
2016-09-28T03:36:20.854Z,14.35
2016-09-28T03:37:20.860Z,14.46
2016-09-28T03:38:20.895Z,14.37
2016-09-28T03:39:20.848Z,14.39
2016-09-28T03:40:20.812Z,14.37
2016-09-28T03:41:20.804Z,14.39
2016-09-28T03:42:20.855Z,14.31
2016-09-28T03:43:20.827Z,14.43
2016-09-28T03:44:20.852Z,14.31
2016-09-28T03:45:20.844Z,14.49
2016-09-28T03:46:20.850Z,14.42
2016-09-28T03:47:20.855Z,14.38
2016-09-28T03:48:20.849Z,14.42
2016-09-28T03:49:20.864Z,14.32
2016-09-28T03:50:20.894Z,14.32
2016-09-28T03:51:20.877Z,14.44
2016-09-28T03:52:20.862Z,14.37
2016-09-28T03:53:20.868Z,14.28
2016-09-28T03:54:20.867Z,14.34
2016-09-28T03:55:20.904Z,14.37
2016-09-28T03:56:20.895Z,14.35
2016-09-28T03:57:20.877Z,14.32
2016-09-28T03:58:20.839Z,14.34
2016-09-28T03:59:20.870Z,14.29
2016-09-28T04:00:20.847Z,14.42
2016-09-28T04:01:20.859Z,14.42
2016-09-28T04:02:20.864Z,14.39
2016-09-28T04:03:20.860Z,14.35
2016-09-28T04:04:20.863Z,14.34
2016-09-28T04:05:20.867Z,14.42
2016-09-28T04:06:20.840Z,14.43
2016-09-28T04:07:20.876Z,14.39
2016-09-28T04:08:20.882Z,14.34
2016-09-28T04:09:20.881Z,14.43
2016-09-28T04:10:28.160Z,14.46
2016-09-28T04:11:27.749Z,14.46
2016-09-28T04:12:29.097Z,14.52
2016-09-28T04:13:23.811Z,14.5
2016-09-28T04:14:20.884Z,14.47
2016-09-28T04:15:20.891Z,14.49
2016-09-28T04:16:29.077Z,14.46
2016-09-28T04:17:28.632Z,14.32
2016-09-28T04:18:28.478Z,14.39
2016-09-28T04:19:28.481Z,14.37
2016-09-28T04:20:29.513Z,14.34
2016-09-28T04:21:29.014Z,14.42
2016-09-28T04:22:21.543Z,14.52
2016-09-28T04:23:21.601Z,14.5
2016-09-28T04:24:20.901Z,14.37
2016-09-28T04:25:20.906Z,14.46
2016-09-28T04:26:20.904Z,14.49
2016-09-28T04:27:20.904Z,14.53
2016-09-28T04:28:20.878Z,14.61
2016-09-28T04:29:20.871Z,14.5
2016-09-28T04:30:21.890Z,14.47
2016-09-28T04:31:20.867Z,14.52
2016-09-28T04:32:20.893Z,14.62
2016-09-28T04:33:20.922Z,14.54
2016-09-28T04:34:20.902Z,14.52
2016-09-28T04:35:20.909Z,14.53
2016-09-28T04:36:20.893Z,14.62
2016-09-28T04:37:20.869Z,14.69
2016-09-28T04:38:20.901Z,14.68
2016-09-28T04:39:20.885Z,14.71
2016-09-28T04:40:21.654Z,14.83
2016-09-28T04:41:20.933Z,14.75
2016-09-28T04:42:20.914Z,14.84
2016-09-28T04:43:20.877Z,14.98
2016-09-28T04:44:20.888Z,14.81
2016-09-28T04:45:20.923Z,14.93
2016-09-28T04:46:20.906Z,14.99
2016-09-28T04:47:20.873Z,15.06
2016-09-28T04:48:20.897Z,15.05
2016-09-28T04:49:20.914Z,15.01
2016-09-28T04:50:20.924Z,15.05
2016-09-28T04:51:20.909Z,15.24
2016-09-28T04:52:20.903Z,15.17
2016-09-28T04:53:20.895Z,15.27
2016-09-28T04:54:20.935Z,15.27
2016-09-28T04:55:21.896Z,15.39
2016-09-28T04:56:20.905Z,15.35
2016-09-28T04:57:20.908Z,15.49
2016-09-28T04:58:20.898Z,15.49
2016-09-28T04:59:20.921Z,15.51
2016-09-28T05:00:20.920Z,15.38
2016-09-28T05:01:20.943Z,15.35
2016-09-28T05:02:20.928Z,15.46
2016-09-28T05:03:20.927Z,15.56
2016-09-28T05:04:20.936Z,15.68
2016-09-28T05:05:20.914Z,15.61
2016-09-28T05:06:20.970Z,15.72
2016-09-28T05:07:20.941Z,15.7
2016-09-28T05:08:20.907Z,15.7
2016-09-28T05:09:20.915Z,15.75
2016-09-28T05:10:20.914Z,15.76
2016-09-28T05:11:20.940Z,15.85
2016-09-28T05:12:20.925Z,15.81
2016-09-28T05:13:20.936Z,15.76
2016-09-28T05:14:20.923Z,15.89
2016-09-28T05:15:20.904Z,15.88
2016-09-28T05:16:20.920Z,15.85
2016-09-28T05:17:20.907Z,15.85
2016-09-28T05:18:20.940Z,15.86
2016-09-28T05:19:20.926Z,15.96
2016-09-28T05:20:20.910Z,15.96
2016-09-28T05:21:20.937Z,15.93
2016-09-28T05:22:20.923Z,15.88
2016-09-28T05:23:20.929Z,15.93
2016-09-28T05:24:20.921Z,16.01
2016-09-28T05:25:20.903Z,15.96
2016-09-28T05:26:20.933Z,16.06
2016-09-28T05:27:20.953Z,16.03
2016-09-28T05:28:20.933Z,16.09
2016-09-28T05:29:20.934Z,16.01
2016-09-28T05:30:20.928Z,16.15
2016-09-28T05:31:20.958Z,16.2
2016-09-28T05:32:20.941Z,16.23
2016-09-28T05:33:20.925Z,16.3
2016-09-28T05:34:20.945Z,16.16
2016-09-28T05:35:20.937Z,16.14
2016-09-28T05:36:20.962Z,16.26
2016-09-28T05:37:20.945Z,16.26
2016-09-28T05:38:20.973Z,16.27
2016-09-28T05:39:20.939Z,16.3
2016-09-28T05:40:20.965Z,16.31
2016-09-28T05:41:20.977Z,16.25
2016-09-28T05:42:20.977Z,16.25
2016-09-28T05:43:20.977Z,16.2
2016-09-28T05:44:20.969Z,16.26
2016-09-28T05:45:20.989Z,16.26
2016-09-28T05:46:21.076Z,16.25
2016-09-28T05:47:20.983Z,16.2
2016-09-28T05:48:20.991Z,16.18
2016-09-28T05:49:20.971Z,16.33
2016-09-28T05:50:20.975Z,16.3
2016-09-28T05:51:21.038Z,16.23
2016-09-28T05:52:20.997Z,16.3
2016-09-28T05:53:20.997Z,16.48
2016-09-28T05:54:21.026Z,16.25
2016-09-28T05:55:20.947Z,16.44
2016-09-28T05:56:20.987Z,16.44
2016-09-28T05:57:20.962Z,16.34
2016-09-28T05:58:20.948Z,16.38
2016-09-28T05:59:20.937Z,16.5
2016-09-28T06:00:20.949Z,16.42
2016-09-28T06:01:20.946Z,16.58
2016-09-28T06:02:20.997Z,16.53
2016-09-28T06:03:20.951Z,16.53
2016-09-28T06:04:20.949Z,16.56
2016-09-28T06:05:20.965Z,16.5
2016-09-28T06:06:20.973Z,16.6
2016-09-28T06:07:20.987Z,16.59
2016-09-28T06:08:20.977Z,16.7
2016-09-28T06:09:20.960Z,16.77
2016-09-28T06:10:20.973Z,16.75
2016-09-28T06:11:20.997Z,16.78
2016-09-28T06:12:20.972Z,16.85
2016-09-28T06:13:21.035Z,16.95
2016-09-28T06:14:20.971Z,16.88
2016-09-28T06:15:21.022Z,16.98
2016-09-28T06:16:20.968Z,16.98
2016-09-28T06:17:21.007Z,17.04
2016-09-28T06:18:21.004Z,17.03
2016-09-28T06:19:20.955Z,16.98
2016-09-28T06:20:21.034Z,17.07
2016-09-28T06:21:20.955Z,17.07
2016-09-28T06:22:21.006Z,17.14
2016-09-28T06:23:20.999Z,16.98
2016-09-28T06:24:20.992Z,17.06
2016-09-28T06:25:20.988Z,17.11
2016-09-28T06:26:21.007Z,17.08
2016-09-28T06:27:21.004Z,17.14
2016-09-28T06:28:20.993Z,17
2016-09-28T06:29:20.988Z,17.06
2016-09-28T06:30:20.977Z,17.2
2016-09-28T06:31:21.019Z,17.11
2016-09-28T06:32:21.006Z,17
2016-09-28T06:33:21.041Z,17.03
2016-09-28T06:34:21.152Z,17.2
2016-09-28T06:35:21.111Z,17.17
2016-09-28T06:36:21.060Z,17.07
2016-09-28T06:37:21.196Z,17.22
2016-09-28T06:38:21.268Z,17.06
2016-09-28T06:39:21.051Z,17.18
2016-09-28T06:40:21.059Z,17.15
2016-09-28T06:41:21.145Z,17.17
2016-09-28T06:42:20.977Z,17.22
2016-09-28T06:43:21.205Z,17.22
2016-09-28T06:44:20.967Z,17.29
2016-09-28T06:45:21.150Z,17.28
2016-09-28T06:46:21.693Z,17.28
2016-09-28T06:47:21.089Z,17.23
2016-09-28T06:48:21.045Z,17.33
2016-09-28T06:49:21.077Z,17.3
2016-09-28T06:50:20.982Z,17.46
2016-09-28T06:51:21.019Z,17.46
2016-09-28T06:52:21.059Z,17.47
2016-09-28T06:53:22.073Z,17.53
2016-09-28T06:54:21.012Z,17.55
2016-09-28T06:55:21.010Z,17.51
2016-09-28T06:56:21.009Z,17.66
2016-09-28T06:57:21.001Z,17.63
2016-09-28T06:58:21.035Z,17.5
2016-09-28T06:59:21.019Z,17.55
2016-09-28T07:00:21.020Z,17.55
2016-09-28T07:01:21.290Z,17.62
2016-09-28T07:02:21.082Z,17.64
2016-09-28T07:03:21.054Z,17.66
2016-09-28T07:04:21.004Z,17.67
2016-09-28T07:05:21.011Z,17.69
2016-09-28T07:06:21.034Z,17.66
2016-09-28T07:07:21.093Z,17.63
2016-09-28T07:08:21.058Z,17.67
2016-09-28T07:09:21.034Z,17.69
2016-09-28T07:10:21.033Z,17.69
2016-09-28T07:11:21.035Z,17.69
2016-09-28T07:12:21.019Z,17.69
2016-09-28T07:13:21.054Z,17.73
2016-09-28T07:14:21.055Z,17.64
2016-09-28T07:15:21.108Z,17.74
2016-09-28T07:16:21.041Z,17.74
2016-09-28T07:17:21.077Z,17.82
2016-09-28T07:18:21.072Z,17.78
2016-09-28T07:19:21.062Z,17.88
2016-09-28T07:20:21.011Z,17.79
2016-09-28T07:21:21.032Z,18.06
2016-09-28T07:22:21.048Z,17.92
2016-09-28T07:23:21.014Z,17.88
2016-09-28T07:24:21.051Z,17.92
2016-09-28T07:25:21.089Z,17.91
2016-09-28T07:26:21.049Z,17.91
2016-09-28T07:27:21.059Z,18.02
2016-09-28T07:28:21.049Z,18.02
2016-09-28T07:29:21.104Z,18.1
2016-09-28T07:30:21.092Z,18.1
2016-09-28T07:31:21.083Z,18.12
2016-09-28T07:32:21.090Z,18.06
2016-09-28T07:33:21.104Z,18.1
2016-09-28T07:34:21.071Z,18.18
2016-09-28T07:35:21.055Z,18.15
2016-09-28T07:36:21.058Z,18.12
2016-09-28T07:37:21.067Z,18.09
2016-09-28T07:38:21.059Z,18.04
2016-09-28T07:39:21.101Z,18
2016-09-28T07:40:21.075Z,17.84
2016-09-28T07:41:21.101Z,17.91
2016-09-28T07:42:21.074Z,18.12
2016-09-28T07:43:21.096Z,17.88
2016-09-28T07:44:21.103Z,17.92
2016-09-28T07:45:21.091Z,18.04
2016-09-28T07:46:21.087Z,18.19
2016-09-28T07:47:21.058Z,18.17
2016-09-28T07:48:21.094Z,18.36
2016-09-28T07:49:21.104Z,18.31
2016-09-28T07:50:21.062Z,18.31
2016-09-28T07:51:21.066Z,18.37
2016-09-28T07:52:21.098Z,18.4
2016-09-28T07:53:21.313Z,18.34
2016-09-28T07:54:21.161Z,18.47
2016-09-28T07:55:21.096Z,18.49
2016-09-28T07:56:21.088Z,18.49
2016-09-28T07:57:21.107Z,18.49
2016-09-28T07:58:21.084Z,18.5
2016-09-28T07:59:21.084Z,18.43
2016-09-28T08:00:21.062Z,18.52
2016-09-28T08:01:21.089Z,18.65
2016-09-28T08:02:21.124Z,18.67
2016-09-28T08:03:21.085Z,18.72
2016-09-28T08:04:21.125Z,18.72
2016-09-28T08:05:21.096Z,18.67
2016-09-28T08:06:21.099Z,18.76
2016-09-28T08:07:21.084Z,18.82
2016-09-28T08:08:21.099Z,18.72
2016-09-28T08:09:21.096Z,18.8
2016-09-28T08:10:21.114Z,18.87
2016-09-28T08:11:21.122Z,18.77
2016-09-28T08:12:21.076Z,18.87
2016-09-28T08:13:21.126Z,18.87
2016-09-28T08:14:21.111Z,18.98
2016-09-28T08:15:21.096Z,19.01
2016-09-28T08:16:21.139Z,19.01
2016-09-28T08:17:21.109Z,19.1
2016-09-28T08:18:21.092Z,18.99
2016-09-28T08:19:21.120Z,18.84
2016-09-28T08:20:21.113Z,18.83
2016-09-28T08:21:21.120Z,18.8
2016-09-28T08:22:21.119Z,18.8
2016-09-28T08:23:21.099Z,18.83
2016-09-28T08:24:21.179Z,18.83
2016-09-28T08:25:21.155Z,19.02
2016-09-28T08:26:21.108Z,19.08
2016-09-28T08:27:21.110Z,18.94
2016-09-28T08:28:21.131Z,18.95
2016-09-28T08:29:21.109Z,18.98
2016-09-28T08:30:21.163Z,19.11
2016-09-28T08:31:21.107Z,19.2
2016-09-28T08:32:21.116Z,19.31
2016-09-28T08:33:21.145Z,19.38
2016-09-28T08:34:21.112Z,19.51
2016-09-28T08:35:21.164Z,19.63
2016-09-28T08:36:21.121Z,19.84
2016-09-28T08:37:21.120Z,19.97
2016-09-28T08:38:21.106Z,19.97
2016-09-28T08:39:21.149Z,20.12
2016-09-28T08:40:21.137Z,20.13
2016-09-28T08:41:21.110Z,20.12
2016-09-28T08:42:21.785Z,20.16
2016-09-28T08:43:21.123Z,20.09
2016-09-28T08:44:21.120Z,20.1
2016-09-28T08:45:21.159Z,20.08
2016-09-28T08:46:21.158Z,19.93
2016-09-28T08:47:21.120Z,19.91
2016-09-28T08:48:21.184Z,19.84
2016-09-28T08:49:21.209Z,19.83
2016-09-28T08:50:21.154Z,19.83
2016-09-28T08:51:21.123Z,19.91
2016-09-28T08:52:21.139Z,19.84
2016-09-28T08:53:21.138Z,19.91
2016-09-28T08:54:21.110Z,20
2016-09-28T08:55:21.193Z,20.03
2016-09-28T08:56:21.152Z,20.16
2016-09-28T08:57:21.143Z,20.15
2016-09-28T08:58:21.133Z,20.06
2016-09-28T08:59:21.148Z,20.08
2016-09-28T09:00:21.136Z,20.13
2016-09-28T09:01:21.174Z,20.08
2016-09-28T09:02:21.150Z,20.09
2016-09-28T09:03:21.118Z,20.03
2016-09-28T09:04:21.117Z,20.18
2016-09-28T09:05:21.131Z,20.2
2016-09-28T09:06:21.147Z,20.2
2016-09-28T09:07:21.198Z,20.15
2016-09-28T09:08:21.171Z,20.21
2016-09-28T09:09:21.149Z,20.16
2016-09-28T09:10:21.146Z,20.05
2016-09-28T09:11:21.149Z,20.09
2016-09-28T09:12:21.153Z,19.98
2016-09-28T09:13:21.165Z,20.16
2016-09-28T09:14:21.153Z,20.13
2016-09-28T09:15:21.144Z,20.13
2016-09-28T09:16:21.204Z,20.16
2016-09-28T09:17:21.200Z,20.24
2016-09-28T09:18:21.165Z,20.34
2016-09-28T09:19:21.182Z,20.46
2016-09-28T09:20:21.197Z,20.54
2016-09-28T09:21:21.194Z,20.62
2016-09-28T09:22:21.164Z,20.66
2016-09-28T09:23:21.172Z,20.76
2016-09-28T09:24:21.145Z,20.8
2016-09-28T09:25:21.145Z,20.99
2016-09-28T09:26:21.416Z,21.08
2016-09-28T09:27:21.504Z,21.29
2016-09-28T09:28:21.222Z,21.34
2016-09-28T09:29:21.229Z,21.39
2016-09-28T09:30:21.272Z,21.46
2016-09-28T09:31:21.213Z,21.38
2016-09-28T09:32:21.203Z,21.26
2016-09-28T09:33:21.255Z,21.19
2016-09-28T09:34:21.237Z,21.26
2016-09-28T09:35:21.178Z,21.29
2016-09-28T09:36:21.233Z,21.32
2016-09-28T09:37:21.378Z,21.2
2016-09-28T09:38:21.244Z,21.24
2016-09-28T09:39:21.220Z,21.3
2016-09-28T09:40:21.209Z,21.32
2016-09-28T09:41:22.372Z,21.26
2016-09-28T09:42:21.182Z,21.24
2016-09-28T09:43:21.180Z,21.29
2016-09-28T09:44:21.239Z,21.17
2016-09-28T09:45:21.284Z,21.3
2016-09-28T09:46:21.218Z,21.27
2016-09-28T09:47:21.217Z,21.2
2016-09-28T09:48:21.194Z,21.26
2016-09-28T09:49:21.322Z,21.27
2016-09-28T09:50:21.220Z,21.38
2016-09-28T09:51:21.185Z,21.46
2016-09-28T09:52:21.239Z,21.53
2016-09-28T09:53:21.198Z,21.42
2016-09-28T09:54:21.261Z,21.51
2016-09-28T09:55:21.195Z,21.41
2016-09-28T09:56:21.323Z,21.53
2016-09-28T09:57:21.226Z,21.59
2016-09-28T09:58:21.231Z,21.57
2016-09-28T09:59:21.180Z,21.59
2016-09-28T10:00:21.218Z,21.53
2016-09-28T10:01:21.236Z,21.53
2016-09-28T10:02:21.231Z,21.51
2016-09-28T10:03:21.223Z,21.53
2016-09-28T10:04:21.221Z,21.64
2016-09-28T10:05:21.220Z,21.6
2016-09-28T10:06:21.234Z,21.64
2016-09-28T10:07:21.213Z,21.67
2016-09-28T10:08:21.213Z,21.63
2016-09-28T10:09:21.247Z,21.51
2016-09-28T10:10:21.198Z,21.45
2016-09-28T10:11:21.223Z,21.53
2016-09-28T10:12:21.231Z,21.56
2016-09-28T10:13:21.223Z,21.56
2016-09-28T10:14:21.250Z,21.46
2016-09-28T10:15:21.842Z,21.44
2016-09-28T10:16:21.247Z,21.39
2016-09-28T10:17:21.246Z,21.35
2016-09-28T10:18:21.201Z,21.5
2016-09-28T10:19:21.228Z,21.48
2016-09-28T10:20:21.210Z,21.46
2016-09-28T10:21:21.265Z,21.5
2016-09-28T10:22:21.234Z,21.56
2016-09-28T10:23:21.214Z,21.54
2016-09-28T10:24:21.220Z,21.38
2016-09-28T10:25:21.266Z,21.38
2016-09-28T10:26:21.275Z,21.23
2016-09-28T10:27:21.235Z,21.17
2016-09-28T10:28:21.213Z,21.01
2016-09-28T10:29:21.231Z,21.05
2016-09-28T10:30:21.249Z,21.01
2016-09-28T10:31:21.256Z,21.11
2016-09-28T10:32:21.224Z,21.11
2016-09-28T10:33:21.215Z,21.16
2016-09-28T10:34:21.257Z,21.3
2016-09-28T10:35:21.243Z,21.29
2016-09-28T10:36:21.265Z,21.27
2016-09-28T10:37:21.240Z,21.29
2016-09-28T10:38:21.238Z,21.39
2016-09-28T10:39:21.243Z,21.42
2016-09-28T10:40:21.206Z,21.45
2016-09-28T10:41:21.256Z,21.59
2016-09-28T10:42:21.246Z,21.64
2016-09-28T10:43:21.227Z,21.57
2016-09-28T10:44:21.245Z,21.61
2016-09-28T10:45:21.240Z,21.59
2016-09-28T10:46:21.249Z,21.6
2016-09-28T10:47:21.253Z,21.42
2016-09-28T10:48:21.303Z,21.39
2016-09-28T10:49:21.230Z,21.39
2016-09-28T10:50:21.266Z,21.36
2016-09-28T10:51:21.237Z,21.3
2016-09-28T10:52:21.243Z,21.34
2016-09-28T10:53:21.224Z,21.39
2016-09-28T10:54:21.257Z,21.45
2016-09-28T10:55:21.265Z,21.46
2016-09-28T10:56:21.256Z,21.5
2016-09-28T10:57:21.217Z,21.51
2016-09-28T10:58:21.241Z,21.53
2016-09-28T10:59:21.262Z,21.54
2016-09-28T11:00:21.239Z,21.69
2016-09-28T11:01:21.280Z,21.59
2016-09-28T11:02:21.237Z,21.6
2016-09-28T11:03:21.221Z,21.61
2016-09-28T11:04:21.261Z,21.54
2016-09-28T11:05:21.293Z,21.59
2016-09-28T11:06:21.262Z,21.66
2016-09-28T11:07:21.268Z,21.72
2016-09-28T11:08:21.285Z,21.79
2016-09-28T11:09:21.255Z,21.61
2016-09-28T11:10:21.282Z,21.76
2016-09-28T11:11:21.260Z,21.78
2016-09-28T11:12:21.267Z,21.76
2016-09-28T11:13:21.307Z,21.81
2016-09-28T11:14:21.272Z,21.81
2016-09-28T11:15:21.277Z,21.97
2016-09-28T11:16:21.327Z,21.83
2016-09-28T11:17:21.288Z,21.98
2016-09-28T11:18:21.252Z,21.92
2016-09-28T11:19:21.282Z,21.94
2016-09-28T11:20:21.298Z,22.04
2016-09-28T11:21:21.277Z,22.09
2016-09-28T11:22:21.286Z,22.1
2016-09-28T11:23:21.295Z,22.19
2016-09-28T11:24:21.288Z,22.25
2016-09-28T11:25:21.294Z,22.32
2016-09-28T11:26:21.313Z,22.25
2016-09-28T11:27:21.296Z,22.13
2016-09-28T11:28:21.297Z,22.14
2016-09-28T11:29:21.295Z,22.07
2016-09-28T11:30:21.284Z,22.13
2016-09-28T11:31:21.273Z,22.1
2016-09-28T11:32:21.281Z,22.14
2016-09-28T11:33:21.288Z,22.14
2016-09-28T11:34:21.287Z,22.13
2016-09-28T11:35:21.314Z,22.22
2016-09-28T11:36:21.304Z,22.27
2016-09-28T11:37:21.285Z,22.32
2016-09-28T11:38:21.294Z,22.41
2016-09-28T11:39:21.272Z,22.28
2016-09-28T11:40:21.300Z,22.52
2016-09-28T11:41:21.288Z,22.5
2016-09-28T11:42:21.311Z,22.53
2016-09-28T11:43:21.300Z,22.53
2016-09-28T11:44:21.285Z,22.57
2016-09-28T11:45:21.316Z,22.5
2016-09-28T11:46:21.394Z,22.44
2016-09-28T11:47:21.348Z,22.38
2016-09-28T11:48:21.284Z,22.38
2016-09-28T11:49:21.304Z,22.46
2016-09-28T11:50:21.325Z,22.46
2016-09-28T11:51:21.331Z,22.6
2016-09-28T11:52:21.327Z,22.53
2016-09-28T11:53:21.368Z,22.68
2016-09-28T11:54:21.321Z,22.69
2016-09-28T11:55:21.345Z,22.72
2016-09-28T11:56:21.339Z,22.74
2016-09-28T11:57:21.356Z,22.74
2016-09-28T11:58:21.382Z,22.65
2016-09-28T11:59:21.330Z,22.62
2016-09-28T12:00:21.380Z,22.65
2016-09-28T12:01:21.367Z,22.64
2016-09-28T12:02:21.343Z,22.77
2016-09-28T12:03:21.376Z,22.64
2016-09-28T12:04:21.371Z,22.74
2016-09-28T12:05:21.377Z,22.74
2016-09-28T12:06:21.400Z,22.71
2016-09-28T12:07:21.361Z,22.8
2016-09-28T12:08:21.401Z,22.83
2016-09-28T12:09:21.330Z,22.94
2016-09-28T12:10:21.339Z,23.12
2016-09-28T12:11:21.339Z,23.08
2016-09-28T12:12:21.323Z,23.24
2016-09-28T12:13:21.345Z,23.32
2016-09-28T12:14:21.351Z,23.23
2016-09-28T12:15:21.390Z,23.29
2016-09-28T12:16:21.360Z,23.34
2016-09-28T12:17:21.371Z,23.32
2016-09-28T12:18:21.406Z,23.38
2016-09-28T12:19:21.344Z,23.38
2016-09-28T12:20:21.403Z,23.27
2016-09-28T12:21:21.352Z,23.22
2016-09-28T12:22:21.326Z,23.23
2016-09-28T12:23:21.335Z,23.14
2016-09-28T12:24:21.355Z,23.26
2016-09-28T12:25:21.348Z,23.32
2016-09-28T12:26:21.339Z,23.26
2016-09-28T12:27:21.377Z,23.26
2016-09-28T12:28:21.433Z,23.17
2016-09-28T12:29:21.372Z,23.34
2016-09-28T12:30:21.326Z,23.15
2016-09-28T12:31:22.425Z,23.47
2016-09-28T12:32:21.384Z,23.52
2016-09-28T12:33:21.404Z,23.61
2016-09-28T12:34:21.372Z,23.47
2016-09-28T12:35:21.378Z,23.53
2016-09-28T12:36:21.370Z,23.52
2016-09-28T12:37:21.335Z,23.61
2016-09-28T12:38:21.401Z,23.52
2016-09-28T12:39:21.389Z,23.43
2016-09-28T12:40:21.410Z,23.76
2016-09-28T12:41:22.128Z,23.64
2016-09-28T12:42:21.925Z,23.62
2016-09-28T12:43:21.417Z,23.53
2016-09-28T12:44:21.408Z,23.45
2016-09-28T12:45:21.385Z,23.82
2016-09-28T12:46:21.377Z,23.68
2016-09-28T12:47:21.381Z,23.61
2016-09-28T12:48:21.414Z,23.46
2016-09-28T12:49:22.107Z,23.68
2016-09-28T12:50:21.418Z,23.7
2016-09-28T12:51:21.383Z,23.58
2016-09-28T12:52:21.399Z,23.68
2016-09-28T12:53:21.433Z,23.9
2016-09-28T12:54:21.444Z,23.49
2016-09-28T12:55:21.446Z,23.77